createdAt,value
2018-06-11T00:01:31.447Z,99.90
2018-06-11T00:03:59.982Z,99.90
2018-06-11T00:06:28.396Z,99.90
2018-06-11T00:08:56.855Z,99.90
2018-06-11T00:11:25.291Z,99.90
2018-06-11T00:13:53.830Z,99.90
2018-06-11T00:16:22.243Z,99.90
2018-06-11T00:18:50.703Z,99.90
2018-06-11T00:21:19.186Z,99.90
2018-06-11T00:23:47.628Z,99.90
2018-06-11T00:26:16.058Z,99.90
2018-06-11T00:28:44.495Z,99.90
2018-06-11T00:31:12.911Z,99.90
2018-06-11T00:33:41.351Z,99.20
2018-06-11T00:36:09.767Z,98.60
2018-06-11T00:38:38.228Z,96.70
2018-06-11T00:41:06.651Z,96.30
2018-06-11T00:46:03.259Z,97.40
2018-06-11T00:48:31.736Z,96.80
2018-06-11T00:51:00.182Z,97.40
2018-06-11T00:53:28.626Z,97.40
2018-06-11T00:56:07.261Z,97.40
2018-06-11T00:58:35.823Z,97.70
2018-06-11T01:01:04.499Z,97.70
2018-06-11T01:03:32.992Z,98.50
2018-06-11T01:06:01.467Z,98.40
2018-06-11T01:08:29.923Z,99.70
2018-06-11T01:10:58.339Z,99.90
2018-06-11T01:13:26.807Z,99.90
2018-06-11T01:15:55.239Z,99.90
2018-06-11T01:18:23.648Z,99.90
2018-06-11T01:20:52.116Z,99.90
2018-06-11T01:23:20.567Z,99.90
2018-06-11T01:25:49.054Z,99.90
2018-06-11T01:28:17.476Z,99.90
2018-06-11T01:30:45.930Z,99.90
2018-06-11T01:33:14.383Z,99.90
2018-06-11T01:35:42.822Z,99.90
2018-06-11T01:38:11.269Z,99.90
2018-06-11T01:40:39.739Z,99.90
2018-06-11T01:43:08.151Z,99.90
2018-06-11T01:45:36.598Z,99.90
2018-06-11T01:48:05.089Z,99.90
2018-06-11T01:50:33.567Z,99.90
2018-06-11T01:53:02.052Z,99.90
2018-06-11T01:55:30.527Z,99.90
2018-06-11T01:57:58.948Z,99.90
2018-06-11T02:00:27.381Z,99.90
2018-06-11T02:02:55.803Z,99.90
2018-06-11T02:05:24.246Z,99.90
2018-06-11T02:07:52.675Z,99.90
2018-06-11T02:10:21.166Z,99.90
2018-06-11T02:12:49.656Z,99.90
2018-06-11T02:15:18.120Z,99.90
2018-06-11T02:17:46.560Z,99.90
2018-06-11T02:20:15.012Z,99.90
2018-06-11T02:22:43.443Z,99.90
2018-06-11T02:25:11.893Z,99.90
2018-06-11T02:27:40.343Z,99.90
2018-06-11T02:30:08.824Z,99.90
2018-06-11T02:32:37.288Z,99.90
2018-06-11T02:35:05.809Z,99.90
2018-06-11T02:37:34.276Z,99.90
2018-06-11T02:40:02.814Z,99.90
2018-06-11T02:42:31.256Z,99.90
2018-06-11T02:44:59.738Z,99.90
2018-06-11T02:47:28.187Z,99.90
2018-06-11T02:49:56.636Z,99.90
2018-06-11T02:52:25.117Z,99.90
2018-06-11T02:54:53.544Z,99.90
2018-06-11T02:57:21.972Z,99.90
2018-06-11T02:59:50.395Z,99.90
2018-06-11T03:02:18.884Z,99.90
2018-06-11T03:04:47.312Z,99.90
2018-06-11T03:07:15.788Z,99.90
2018-06-11T03:09:44.223Z,99.90
2018-06-11T03:12:12.655Z,99.90
2018-06-11T03:14:41.094Z,99.90
2018-06-11T03:17:09.516Z,99.90
2018-06-11T03:19:37.950Z,99.90
2018-06-11T03:22:06.488Z,99.90
2018-06-11T03:24:34.933Z,99.90
2018-06-11T03:27:03.388Z,99.90
2018-06-11T03:29:32.406Z,99.90
2018-06-11T03:32:00.936Z,99.90
2018-06-11T03:34:29.382Z,99.90
2018-06-11T03:36:57.805Z,99.90
2018-06-11T03:39:26.278Z,99.90
2018-06-11T03:41:54.712Z,99.90
2018-06-11T03:44:23.185Z,99.90
2018-06-11T03:46:51.622Z,99.90
2018-06-11T03:49:20.092Z,99.90
2018-06-11T03:51:48.542Z,99.90
2018-06-11T03:54:17.022Z,99.90
2018-06-11T03:56:45.468Z,99.90
2018-06-11T03:59:13.904Z,99.90
2018-06-11T04:01:42.332Z,99.90
2018-06-11T04:04:10.816Z,99.90
2018-06-11T04:06:39.284Z,99.90
2018-06-11T04:09:08.574Z,99.90
2018-06-11T04:11:37.041Z,99.90
2018-06-11T04:16:33.693Z,99.90
2018-06-11T04:19:02.204Z,99.90
2018-06-11T04:21:30.665Z,99.90
2018-06-11T04:23:59.116Z,98.90
2018-06-11T04:26:27.552Z,99.00
2018-06-11T04:28:55.998Z,98.30
2018-06-11T04:31:24.438Z,97.10
2018-06-11T04:33:52.907Z,96.30
2018-06-11T04:36:21.359Z,95.40
2018-06-11T04:38:49.811Z,96.30
2018-06-11T04:41:18.292Z,96.30
2018-06-11T04:43:46.762Z,96.40
2018-06-11T04:46:15.203Z,96.70
2018-06-11T04:48:43.648Z,95.80
2018-06-11T04:51:12.099Z,94.60
2018-06-11T04:53:40.554Z,94.10
2018-06-11T04:56:08.972Z,94.60
2018-06-11T04:58:37.384Z,93.30
2018-06-11T05:01:05.824Z,93.20
2018-06-11T05:03:34.371Z,92.80
2018-06-11T05:06:02.879Z,92.40
2018-06-11T05:08:31.338Z,92.30
2018-06-11T05:10:59.840Z,92.30
2018-06-11T05:13:28.263Z,92.50
2018-06-11T05:15:56.710Z,92.00
2018-06-11T05:18:25.112Z,92.70
2018-06-11T05:20:53.622Z,92.30
2018-06-11T05:23:22.046Z,92.70
2018-06-11T05:25:50.480Z,92.80
2018-06-11T05:28:18.912Z,92.40
2018-06-11T05:30:47.392Z,92.30
2018-06-11T05:33:15.812Z,91.30
2018-06-11T05:35:44.235Z,91.20
2018-06-11T05:38:12.763Z,91.50
2018-06-11T05:40:41.230Z,90.50
2018-06-11T05:43:09.599Z,89.60
2018-06-11T05:48:06.217Z,89.20
2018-06-11T05:50:34.703Z,89.50
2018-06-11T05:53:03.148Z,90.00
2018-06-11T05:55:32.101Z,90.50
2018-06-11T05:58:00.553Z,91.70
2018-06-11T06:00:28.972Z,91.80
2018-06-11T06:02:57.393Z,90.20
2018-06-11T06:05:25.852Z,90.30
2018-06-11T06:07:54.271Z,90.60
2018-06-11T06:10:22.676Z,90.40
2018-06-11T06:12:51.088Z,90.60
2018-06-11T06:15:19.516Z,90.40
2018-06-11T06:17:47.931Z,90.90
2018-06-11T06:20:16.364Z,88.40
2018-06-11T06:22:44.791Z,89.60
2018-06-11T06:25:13.224Z,89.70
2018-06-11T06:27:41.628Z,89.20
2018-06-11T06:30:10.012Z,89.00
2018-06-11T06:32:38.443Z,89.70
2018-06-11T06:35:06.855Z,90.20
2018-06-11T06:37:35.287Z,91.00
2018-06-11T06:40:03.777Z,90.90
2018-06-11T06:42:32.245Z,90.90
2018-06-11T06:45:01.191Z,90.80
2018-06-11T06:47:29.606Z,90.80
2018-06-11T06:50:04.275Z,90.70
2018-06-11T06:52:32.698Z,90.50
2018-06-11T06:55:01.190Z,90.90
2018-06-11T06:57:29.609Z,90.60
2018-06-11T06:59:58.006Z,90.40
2018-06-11T07:02:26.427Z,90.30
2018-06-11T07:04:54.835Z,90.40
2018-06-11T07:07:23.244Z,90.30
2018-06-11T07:09:51.659Z,90.20
2018-06-11T07:12:20.070Z,90.10
2018-06-11T07:14:48.511Z,90.00
2018-06-11T07:17:16.938Z,90.00
2018-06-11T07:19:45.336Z,90.10
2018-06-11T07:22:13.740Z,89.40
2018-06-11T07:24:42.139Z,88.30
2018-06-11T07:27:10.558Z,87.20
2018-06-11T07:32:07.108Z,86.40
2018-06-11T07:34:35.524Z,87.60
2018-06-11T07:37:03.931Z,86.50
2018-06-11T07:39:32.461Z,88.00
2018-06-11T07:42:00.942Z,86.40
2018-06-11T07:44:29.344Z,85.90
2018-06-11T07:46:58.917Z,86.60
2018-06-11T07:49:27.336Z,85.50
2018-06-11T07:51:55.734Z,85.80
2018-06-11T07:54:24.187Z,86.00
2018-06-11T07:56:52.640Z,84.30
2018-06-11T07:59:21.047Z,84.20
2018-06-11T08:01:49.428Z,83.90
2018-06-11T08:04:17.835Z,85.20
2018-06-11T08:06:46.222Z,85.20
2018-06-11T08:09:14.646Z,84.10
2018-06-11T08:11:43.040Z,83.80
2018-06-11T08:14:11.475Z,82.80
2018-06-11T08:16:39.903Z,82.60
2018-06-11T08:19:09.871Z,82.90
2018-06-11T08:21:38.334Z,81.30
2018-06-11T08:24:06.842Z,81.70
2018-06-11T08:26:35.362Z,82.20
2018-06-11T08:29:03.841Z,83.20
2018-06-11T08:31:32.256Z,83.00
2018-06-11T08:34:00.676Z,82.50
2018-06-11T08:36:29.095Z,81.70
2018-06-11T08:38:57.559Z,82.10
2018-06-11T08:41:25.947Z,81.90
2018-06-11T08:43:54.335Z,82.10
2018-06-11T08:46:22.751Z,82.40
2018-06-11T08:48:51.215Z,82.80
2018-06-11T08:51:19.708Z,82.80
2018-06-11T08:53:48.153Z,82.70
2018-06-11T08:56:16.556Z,82.70
2018-06-11T08:58:45.846Z,82.40
2018-06-11T09:01:14.285Z,82.80
2018-06-11T09:03:42.704Z,82.80
2018-06-11T09:06:11.150Z,82.60
2018-06-11T09:11:07.761Z,81.90
2018-06-11T09:13:36.216Z,80.80
2018-06-11T09:16:04.739Z,81.80
2018-06-11T09:18:33.204Z,82.20
2018-06-11T09:21:08.067Z,81.70
2018-06-11T09:23:36.480Z,81.00
2018-06-11T09:26:05.188Z,82.00
2018-06-11T09:28:33.643Z,82.00
2018-06-11T09:31:02.161Z,80.90
2018-06-11T09:33:30.537Z,80.80
2018-06-11T09:35:58.927Z,80.90
2018-06-11T09:38:27.371Z,80.10
2018-06-11T09:40:55.788Z,79.70
2018-06-11T09:43:24.220Z,79.20
2018-06-11T09:45:52.604Z,80.50
2018-06-11T09:48:21.093Z,80.90
2018-06-11T09:50:49.526Z,80.80
2018-06-11T09:53:17.919Z,81.00
2018-06-11T09:55:46.352Z,81.70
2018-06-11T09:58:14.771Z,81.80
2018-06-11T10:00:43.202Z,81.50
2018-06-11T10:03:11.616Z,82.00
2018-06-11T10:05:40.108Z,82.40
2018-06-11T10:08:08.515Z,82.90
2018-06-11T10:10:36.933Z,83.10
2018-06-11T10:13:05.384Z,83.10
2018-06-11T10:15:33.905Z,82.80
2018-06-11T10:18:02.391Z,82.10
2018-06-11T10:20:30.807Z,80.70
2018-06-11T10:22:59.224Z,81.60
2018-06-11T10:25:27.659Z,79.40
2018-06-11T10:27:56.051Z,79.00
2018-06-11T10:30:24.662Z,78.90
2018-06-11T10:32:53.188Z,77.30
2018-06-11T10:35:21.605Z,75.90
2018-06-11T10:37:50.024Z,74.70
2018-06-11T10:40:18.482Z,74.50
2018-06-11T10:42:46.914Z,74.40
2018-06-11T10:45:15.375Z,73.60
2018-06-11T10:47:43.867Z,73.00
2018-06-11T10:50:12.412Z,72.50
2018-06-11T10:52:40.830Z,71.20
2018-06-11T10:55:09.271Z,71.00
2018-06-11T10:57:37.677Z,69.30
2018-06-11T11:00:06.191Z,67.20
2018-06-11T11:02:34.579Z,68.80
2018-06-11T11:05:03.110Z,68.70
2018-06-11T11:07:31.516Z,67.90
2018-06-11T11:09:59.948Z,67.50
2018-06-11T11:12:28.415Z,67.00
2018-06-11T11:14:56.799Z,65.90
2018-06-11T11:17:25.184Z,68.00
2018-06-11T11:19:53.562Z,67.70
2018-06-11T11:22:21.924Z,67.50
2018-06-11T11:24:50.325Z,67.60
2018-06-11T11:27:18.696Z,69.30
2018-06-11T11:29:47.180Z,70.20
2018-06-11T11:32:15.560Z,70.60
2018-06-11T11:34:43.960Z,70.90
2018-06-11T11:37:12.335Z,71.30
2018-06-11T11:39:40.740Z,70.80
2018-06-11T11:42:09.143Z,70.50
2018-06-11T11:44:37.531Z,70.50
2018-06-11T11:47:05.944Z,69.60
2018-06-11T11:49:34.319Z,69.60
2018-06-11T11:52:02.746Z,70.20
2018-06-11T11:54:31.711Z,69.90
2018-06-11T11:57:00.152Z,69.60
2018-06-11T11:59:28.549Z,70.30
2018-06-11T12:01:56.960Z,71.00
2018-06-11T12:04:25.339Z,70.80
2018-06-11T12:06:53.728Z,70.80
2018-06-11T12:09:22.096Z,71.80
2018-06-11T12:11:50.506Z,71.20
2018-06-11T12:14:19.004Z,72.60
2018-06-11T12:16:47.395Z,72.60
2018-06-11T12:19:15.804Z,72.30
2018-06-11T12:21:44.190Z,72.40
2018-06-11T12:24:12.568Z,73.00
2018-06-11T12:26:40.983Z,73.90
2018-06-11T12:29:09.355Z,73.10
2018-06-11T12:31:37.758Z,73.70
2018-06-11T12:34:06.144Z,73.20
2018-06-11T12:36:34.540Z,73.70
2018-06-11T12:39:03.301Z,73.80
2018-06-11T12:41:31.723Z,74.00
2018-06-11T12:44:00.132Z,73.70
2018-06-11T12:46:28.559Z,73.80
2018-06-11T12:48:56.944Z,73.80
2018-06-11T12:51:25.339Z,72.20
2018-06-11T12:53:53.724Z,72.80
2018-06-11T12:56:22.194Z,72.50
2018-06-11T12:58:50.560Z,70.40
2018-06-11T13:04:02.738Z,69.90
2018-06-11T13:06:31.140Z,68.70
2018-06-11T13:08:59.508Z,67.40
2018-06-11T13:11:27.895Z,68.60
2018-06-11T13:13:56.367Z,67.30
2018-06-11T13:16:24.767Z,65.20
2018-06-11T13:18:53.182Z,66.30
2018-06-11T13:21:21.573Z,66.40
2018-06-11T13:23:49.975Z,69.20
2018-06-11T13:26:18.385Z,70.90
2018-06-11T13:28:46.786Z,71.20
2018-06-11T13:31:15.163Z,69.30
2018-06-11T13:33:43.567Z,67.70
2018-06-11T13:36:11.956Z,69.00
2018-06-11T13:38:40.371Z,69.80
2018-06-11T13:41:08.756Z,68.80
2018-06-11T13:43:37.180Z,70.20
2018-06-11T13:46:05.612Z,71.00
2018-06-11T13:48:34.044Z,71.20
2018-06-11T13:51:02.490Z,70.20
2018-06-11T13:53:30.903Z,71.10
2018-06-11T13:55:59.296Z,71.70
2018-06-11T13:58:27.719Z,71.30
2018-06-11T14:00:56.103Z,71.70
2018-06-11T14:03:24.632Z,72.30
2018-06-11T14:05:53.069Z,72.90
2018-06-11T14:08:21.483Z,73.20
2018-06-11T14:10:49.879Z,73.40
2018-06-11T14:13:18.404Z,73.40
2018-06-11T14:15:46.816Z,73.50
2018-06-11T14:18:15.220Z,73.50
2018-06-11T14:20:43.604Z,73.80
2018-06-11T14:23:12.005Z,74.40
2018-06-11T14:25:40.408Z,74.70
2018-06-11T14:28:08.843Z,75.70
2018-06-11T14:33:05.567Z,76.60
2018-06-11T14:35:33.996Z,76.20
2018-06-11T14:38:02.424Z,75.60
2018-06-11T14:40:30.864Z,76.00
2018-06-11T14:42:59.256Z,74.90
2018-06-11T14:45:27.668Z,76.50
2018-06-11T14:47:56.079Z,76.50
2018-06-11T14:50:24.496Z,77.50
2018-06-11T14:52:52.913Z,78.30
2018-06-11T14:55:21.328Z,78.50
2018-06-11T14:57:49.747Z,79.90
2018-06-11T15:00:18.185Z,80.70
2018-06-11T15:02:46.597Z,80.60
2018-06-11T15:05:15.002Z,82.80
2018-06-11T15:07:43.397Z,85.60
2018-06-11T15:10:11.827Z,87.40
2018-06-11T15:12:40.216Z,87.50
2018-06-11T15:15:08.648Z,90.20
2018-06-11T15:17:37.025Z,91.20
2018-06-11T15:20:05.462Z,91.40
2018-06-11T15:22:33.923Z,91.50
2018-06-11T15:25:02.441Z,92.30
2018-06-11T15:27:30.866Z,92.50
2018-06-11T15:29:59.309Z,92.50
2018-06-11T15:32:27.678Z,92.50
2018-06-11T15:34:56.144Z,92.90
2018-06-11T15:37:24.564Z,93.50
2018-06-11T15:39:52.960Z,92.20
2018-06-11T15:42:21.356Z,93.00
2018-06-11T15:44:49.829Z,92.00
2018-06-11T15:47:18.442Z,90.80
2018-06-11T15:49:46.844Z,91.40
2018-06-11T15:52:15.248Z,91.20
2018-06-11T15:54:43.639Z,91.10
2018-06-11T15:57:12.492Z,91.50
2018-06-11T15:59:41.354Z,91.90
2018-06-11T16:02:09.849Z,91.50
2018-06-11T16:04:38.329Z,92.10
2018-06-11T16:07:06.804Z,93.30
2018-06-11T16:09:35.250Z,94.90
2018-06-11T16:12:03.769Z,96.10
2018-06-11T16:14:32.232Z,97.70
2018-06-11T16:17:00.735Z,99.90
2018-06-11T16:19:29.183Z,99.90
2018-06-11T16:21:57.689Z,99.90
2018-06-11T16:24:26.136Z,99.90
2018-06-11T16:26:54.576Z,99.90
2018-06-11T16:29:23.108Z,99.90
2018-06-11T16:31:51.541Z,99.90
2018-06-11T16:34:19.990Z,99.90
2018-06-11T16:39:16.640Z,99.90
2018-06-11T16:41:45.134Z,99.90
2018-06-11T16:44:13.580Z,99.90
2018-06-11T16:46:42.011Z,99.90
2018-06-11T16:49:10.531Z,99.90
2018-06-11T16:51:39.051Z,99.90
2018-06-11T16:54:07.554Z,99.90
2018-06-11T16:59:04.241Z,99.90
2018-06-11T17:01:32.727Z,99.90
2018-06-11T17:04:01.204Z,99.90
2018-06-11T17:06:29.756Z,99.90
2018-06-11T17:08:58.295Z,99.90
2018-06-11T17:11:26.925Z,99.90
2018-06-11T17:13:55.502Z,99.90
2018-06-11T17:16:24.126Z,99.90
2018-06-11T17:18:52.713Z,99.90
2018-06-11T17:21:21.319Z,99.90
2018-06-11T17:23:49.823Z,99.90
2018-06-11T17:26:18.423Z,99.90
2018-06-11T17:28:46.938Z,99.90
2018-06-11T17:31:15.464Z,99.90
2018-06-11T17:33:44.122Z,99.90
2018-06-11T17:36:12.565Z,99.90
2018-06-11T17:38:47.101Z,99.90
2018-06-11T17:41:15.630Z,99.90
2018-06-11T17:43:44.052Z,99.90
2018-06-11T17:46:12.579Z,99.90
2018-06-11T17:48:41.052Z,99.90
2018-06-11T17:51:09.528Z,99.90
2018-06-11T17:53:37.975Z,99.90
2018-06-11T17:56:06.458Z,99.90
2018-06-11T17:58:35.036Z,99.90
2018-06-11T18:01:03.497Z,99.90
2018-06-11T18:03:32.012Z,99.90
2018-06-11T18:06:01.538Z,99.90
2018-06-11T18:08:30.670Z,99.90
2018-06-11T18:10:59.092Z,99.90
2018-06-11T18:13:27.693Z,99.90
2018-06-11T18:15:56.435Z,99.90
2018-06-11T18:18:24.983Z,99.90
2018-06-11T18:20:53.715Z,99.90
2018-06-11T18:23:22.342Z,99.90
2018-06-11T18:25:51.902Z,99.90
2018-06-11T18:28:20.531Z,99.90
2018-06-11T18:30:49.015Z,99.90
2018-06-11T18:33:17.646Z,99.90
2018-06-11T18:35:46.134Z,99.90
2018-06-11T18:38:14.709Z,99.90
2018-06-11T18:40:43.244Z,99.90
2018-06-11T18:45:39.859Z,99.90
2018-06-11T18:48:08.297Z,99.90
2018-06-11T18:50:36.830Z,99.90
2018-06-11T18:53:05.546Z,99.90
2018-06-11T18:55:34.070Z,99.90
2018-06-11T18:58:02.621Z,99.90
2018-06-11T19:00:31.236Z,99.90
2018-06-11T19:02:59.743Z,99.90
2018-06-11T19:05:28.280Z,99.90
2018-06-11T19:07:56.755Z,99.90
2018-06-11T19:10:25.343Z,99.90
2018-06-11T19:12:53.950Z,99.90
2018-06-11T19:15:22.531Z,99.90
2018-06-11T19:17:50.987Z,99.90
2018-06-11T19:20:19.579Z,99.90
2018-06-11T19:22:48.031Z,99.90
2018-06-11T19:25:16.507Z,99.90
2018-06-11T19:27:44.978Z,99.90
2018-06-11T19:30:13.451Z,99.90
2018-06-11T19:32:41.892Z,99.90
2018-06-11T19:35:10.359Z,99.90
2018-06-11T19:37:38.847Z,99.90
2018-06-11T19:40:07.408Z,99.90
2018-06-11T19:45:04.141Z,99.90
2018-06-11T19:47:32.636Z,99.90
2018-06-11T19:50:01.204Z,99.90
2018-06-11T19:52:29.602Z,99.90
2018-06-11T19:54:58.053Z,99.90
2018-06-11T19:57:26.561Z,99.90
2018-06-11T19:59:55.046Z,99.90
2018-06-11T20:02:23.488Z,99.90
2018-06-11T20:04:51.952Z,99.90
2018-06-11T20:07:20.472Z,99.90
2018-06-11T20:09:48.892Z,99.90
2018-06-11T20:12:17.428Z,99.90
2018-06-11T20:14:45.877Z,99.90
2018-06-11T20:17:14.415Z,99.90
2018-06-11T20:19:42.866Z,99.90
2018-06-11T20:22:11.363Z,99.90
2018-06-11T20:24:39.856Z,99.90
2018-06-11T20:27:08.319Z,99.90
2018-06-11T20:29:37.071Z,99.90
2018-06-11T20:32:05.676Z,99.90
2018-06-11T20:34:34.210Z,99.90
2018-06-11T20:37:02.770Z,99.90
2018-06-11T20:39:31.252Z,99.90
2018-06-11T20:41:59.764Z,99.90
2018-06-11T20:44:28.215Z,99.90
2018-06-11T20:46:56.748Z,99.90
2018-06-11T20:49:25.248Z,99.90
2018-06-11T20:51:53.971Z,99.90
2018-06-11T20:54:22.481Z,99.90
2018-06-11T20:56:51.246Z,99.90
2018-06-11T21:01:47.824Z,99.90
2018-06-11T21:04:16.240Z,99.90
2018-06-11T21:06:44.688Z,99.90
2018-06-11T21:09:13.164Z,99.90
2018-06-11T21:11:41.613Z,99.90
2018-06-11T21:14:10.092Z,99.90
2018-06-11T21:16:38.516Z,99.90
2018-06-11T21:19:06.997Z,99.90
2018-06-11T21:21:35.483Z,99.90
2018-06-11T21:24:03.982Z,99.90
2018-06-11T21:26:32.466Z,99.90
2018-06-11T21:29:01.004Z,99.90
2018-06-11T21:31:29.403Z,99.90
2018-06-11T21:33:57.862Z,99.90
2018-06-11T21:36:26.323Z,99.90
2018-06-11T21:38:54.800Z,99.90
2018-06-11T21:41:23.298Z,99.90
2018-06-11T21:43:51.762Z,99.90
2018-06-11T21:46:20.203Z,99.90
2018-06-11T21:48:48.671Z,99.90
2018-06-11T21:51:17.096Z,99.90
2018-06-11T21:53:45.680Z,99.90
2018-06-11T21:56:14.080Z,99.90
2018-06-11T21:58:42.490Z,99.90
2018-06-11T22:01:11.003Z,99.90
2018-06-11T22:03:39.462Z,99.90
2018-06-11T22:06:07.953Z,99.90
2018-06-11T22:08:36.400Z,99.90
2018-06-11T22:11:04.844Z,99.90
2018-06-11T22:13:33.810Z,99.90
2018-06-11T22:16:02.279Z,99.90
2018-06-11T22:18:30.712Z,99.90
2018-06-11T22:20:59.159Z,99.90
2018-06-11T22:23:27.581Z,99.90
2018-06-11T22:25:56.039Z,99.90
2018-06-11T22:28:24.583Z,99.90
2018-06-11T22:30:53.062Z,99.90
2018-06-11T22:33:21.494Z,99.90
2018-06-11T22:35:49.951Z,99.90
2018-06-11T22:38:18.385Z,99.90
2018-06-11T22:40:46.850Z,99.90
2018-06-11T22:43:15.282Z,99.90
2018-06-11T22:45:43.722Z,99.90
2018-06-11T22:48:12.214Z,99.90
2018-06-11T22:50:40.656Z,99.90
2018-06-11T22:53:09.031Z,99.90
2018-06-11T22:55:37.490Z,99.90
2018-06-11T22:58:06.001Z,99.90
2018-06-11T23:00:35.000Z,99.90
2018-06-11T23:03:03.482Z,99.90
2018-06-11T23:05:31.951Z,99.90
2018-06-11T23:08:00.424Z,99.90
2018-06-11T23:10:28.875Z,99.90
2018-06-11T23:12:57.375Z,99.90
2018-06-11T23:15:25.894Z,99.90
2018-06-11T23:17:54.358Z,99.90
2018-06-11T23:20:22.822Z,99.90
2018-06-11T23:22:51.346Z,99.90
2018-06-11T23:25:19.777Z,99.90
2018-06-11T23:27:48.201Z,99.90
2018-06-11T23:30:16.636Z,99.90
2018-06-11T23:32:45.041Z,99.90
2018-06-11T23:35:13.481Z,99.90
2018-06-11T23:37:41.924Z,99.90
2018-06-11T23:40:10.311Z,99.90
2018-06-11T23:42:38.730Z,99.90
2018-06-11T23:45:07.170Z,99.90
2018-06-11T23:47:35.623Z,99.90
2018-06-11T23:50:04.059Z,99.90
2018-06-11T23:52:32.498Z,99.90
2018-06-11T23:55:00.926Z,99.90
2018-06-11T23:57:29.378Z,99.90
2018-06-11T23:59:58.195Z,99.90
